Time;durP1;ratioP1;P1;durP2;ratioP2;P2;SDS_P1;SDS_P2;PMS_P1;PMS_P2;Temp;Humidity;BMP_temperature;BMP_pressure;BME280_temperature;BME280_humidity;BME280_pressure;Samples;Min_cycle;Max_cycle;Signal;HPM_P1;HPM_P2
2021/12/26 00:00:32;;;;;;;;;;;;;;;-6.90;90.98;99922.12;1677938;83;20139;-82
2021/12/26 00:02:58;;;;;;;;;;;;;;;-6.87;90.63;99929.72;1691675;83;21075;-82
2021/12/26 00:05:24;;;;;;;;;;;;;;;-6.78;90.09;99920.02;1684053;83;20207;-82
2021/12/26 00:07:50;;;;;;;;;;;;;;;-6.82;90.04;99915.87;1693726;83;21210;-82
2021/12/26 00:10:17;;;;;;;;;;;;;;;-6.87;90.01;99924.58;1687557;83;20125;-82
2021/12/26 00:12:42;;;;;;;;;;;;;;;-6.91;90.19;99926.84;1690178;83;20129;-81
2021/12/26 00:15:08;;;;;;;;;;;;;;;-6.83;90.09;99933.47;1683800;83;20162;-81
2021/12/26 00:17:34;;;;;;;;;;;;;;;-6.81;89.79;99920.13;1690528;83;20247;-81
2021/12/26 00:19:59;;;;;;;;;;;;;;;-6.76;89.89;99929.78;1688629;83;21496;-81
2021/12/26 00:22:25;;;;;;;;;;;;;;;-6.92;90.05;99927.73;1686403;83;20207;-81
2021/12/26 00:24:51;;;;;;;;;;;;;;;-6.96;90.28;99927.45;1691338;83;20137;-82
2021/12/26 00:27:18;;;;;;;;;;;;;;;-6.91;90.35;99935.83;1684794;83;20195;-81
2021/12/26 00:29:44;;;;;;;;;;;;;;;-6.95;90.36;99931.67;1688159;83;20192;-82
2021/12/26 00:32:10;;;;;;;;;;;;;;;-6.90;90.17;99935.38;1687433;83;21153;-82
2021/12/26 00:34:37;;;;;;;;;;;;;;;-6.97;90.33;99939.05;1681449;83;20224;-81
2021/12/26 00:37:03;;;;;;;;;;;;;;;-6.94;90.38;99937.22;1690793;83;20219;-81
2021/12/26 00:39:29;;;;;;;;;;;;;;;-6.83;89.90;99946.30;1688030;83;20217;-82
2021/12/26 00:41:54;;;;;;;;;;;;;;;-7.00;90.19;99943.00;1686349;83;20168;-82
2021/12/26 00:44:20;;;;;;;;;;;;;;;-6.89;90.31;99936.61;1679708;83;21159;-83
2021/12/26 00:46:46;;;;;;;;;;;;;;;-6.83;89.95;99939.88;1699251;83;20343;-82
2021/12/26 00:49:11;;;;;;;;;;;;;;;-6.91;90.12;99935.83;1694006;83;20238;-83
2021/12/26 00:51:38;;;;;;;;;;;;;;;-6.91;90.21;99935.00;1694035;83;20187;-82
2021/12/26 00:54:04;;;;;;;;;;;;;;;-6.75;89.90;99930.19;1699415;83;20184;-82
2021/12/26 00:56:30;;;;;;;;;;;;;;;-6.76;89.81;99931.89;1684055;83;21142;-83
2021/12/26 00:58:55;;;;;;;;;;;;;;;-6.75;89.48;99937.89;1692158;83;20215;-81
2021/12/26 01:01:21;;;;;;;;;;;;;;;-6.67;89.35;99928.19;1683631;83;20160;-82
2021/12/26 01:03:46;;;;;;;;;;;;;;;-6.80;89.54;99934.19;1680687;85;20156;-82
2021/12/26 01:06:12;;;;;;;;;;;;;;;-6.75;89.41;99943.02;1685110;85;20173;-82
2021/12/26 01:08:41;;;;;;;;;;;;;;;-6.72;89.27;99946.31;1678929;85;21098;-82
2021/12/26 01:11:15;;;;;;;;;;;;;;;-6.73;89.29;99948.94;1684088;85;20554;-80
2021/12/26 01:13:38;;;;;;;;;;;;;;;-6.76;89.34;99947.75;1677603;84;20478;-81
2021/12/26 01:16:05;;;;;;;;;;;;;;;-6.78;89.64;99950.83;1680675;85;20335;-79
2021/12/26 01:18:34;;;;;;;;;;;;;;;-6.74;89.44;99939.55;1681520;85;20178;-82
2021/12/26 01:21:15;;;;;;;;;;;;;;;-6.76;89.76;99943.91;1679653;85;22008;-81
2021/12/26 01:23:30;;;;;;;;;;;;;;;-6.93;89.87;99917.09;1679302;84;20144;-82
2021/12/26 01:25:56;;;;;;;;;;;;;;;-6.76;89.78;99941.34;1685730;85;20223;-82
2021/12/26 01:28:23;;;;;;;;;;;;;;;-6.64;90.01;99945.23;1676663;83;20825;-82
2021/12/26 01:30:50;;;;;;;;;;;;;;;-6.70;89.59;99946.27;1680692;85;20197;-81
2021/12/26 01:33:16;;;;;;;;;;;;;;;-6.69;89.16;99946.67;1678183;83;21140;-81
2021/12/26 01:35:42;;;;;;;;;;;;;;;-6.65;89.27;99941.80;1682741;85;20173;-81
2021/12/26 01:38:12;;;;;;;;;;;;;;;-6.74;89.50;99949.81;1674599;85;20209;-82
2021/12/26 01:40:38;;;;;;;;;;;;;;;-6.72;89.48;99948.88;1672427;85;20375;-82
2021/12/26 01:43:03;;;;;;;;;;;;;;;-6.63;89.40;99959.30;1676822;84;20287;-81
2021/12/26 01:45:29;;;;;;;;;;;;;;;-6.65;89.30;99948.22;1678743;85;21180;-82
2021/12/26 01:47:59;;;;;;;;;;;;;;;-6.76;89.69;99959.31;1675088;85;20321;-83
2021/12/26 01:50:25;;;;;;;;;;;;;;;-6.89;90.41;99946.88;1684455;85;20185;-82
2021/12/26 01:52:50;;;;;;;;;;;;;;;-6.86;90.42;99957.05;1680969;85;20149;-82
2021/12/26 01:58:01;;;;;;;;;;;;;;;-6.91;90.89;99951.23;1681053;85;21184;-82
2021/12/26 02:00:27;;;;;;;;;;;;;;;-6.86;90.47;99954.48;1687474;83;20718;-82
2021/12/26 02:02:52;;;;;;;;;;;;;;;-6.87;91.05;99954.11;1681305;83;20139;-82
2021/12/26 02:05:18;;;;;;;;;;;;;;;-6.78;90.66;99958.08;1701375;83;20120;-83
2021/12/26 02:07:43;;;;;;;;;;;;;;;-6.91;90.40;99958.11;1690227;83;20341;-82
2021/12/26 02:10:09;;;;;;;;;;;;;;;-6.93;90.77;99955.59;1686819;83;21021;-83
2021/12/26 02:12:34;;;;;;;;;;;;;;;-6.94;90.56;99955.19;1697594;83;20434;-82
2021/12/26 02:15:00;;;;;;;;;;;;;;;-6.89;90.36;99961.00;1704495;83;20183;-82
2021/12/26 02:17:27;;;;;;;;;;;;;;;-6.92;90.39;99948.72;1689666;83;20678;-82
2021/12/26 02:19:57;;;;;;;;;;;;;;;-6.86;89.99;99947.23;1682801;83;20165;-81
2021/12/26 02:22:29;;;;;;;;;;;;;;;-6.78;89.85;99954.68;1686350;83;20127;-82
2021/12/26 02:27:32;;;;;;;;;;;;;;;-6.93;90.60;99950.45;1696537;83;20195;-82
2021/12/26 02:30:00;;;;;;;;;;;;;;;-6.98;90.39;99949.75;1695514;83;20156;-81
2021/12/26 02:32:26;;;;;;;;;;;;;;;-7.16;90.64;99916.98;1685332;83;20220;-81
2021/12/26 02:34:52;;;;;;;;;;;;;;;-7.02;90.66;99942.20;1692331;83;21203;-83
2021/12/26 02:37:17;;;;;;;;;;;;;;;-7.08;90.93;99954.80;1689865;83;20761;-83
2021/12/26 02:39:43;;;;;;;;;;;;;;;-7.08;91.08;99957.37;1700738;83;20172;-83
2021/12/26 02:42:08;;;;;;;;;;;;;;;-7.13;91.14;99963.07;1693503;83;20168;-82
2021/12/26 02:44:34;;;;;;;;;;;;;;;-7.12;91.09;99959.17;1695649;83;20180;-82
2021/12/26 02:47:00;;;;;;;;;;;;;;;-7.23;91.51;99969.77;1689440;83;21063;-82
2021/12/26 02:49:25;;;;;;;;;;;;;;;-7.20;91.58;99956.47;1692544;83;20501;-82
2021/12/26 02:51:51;;;;;;;;;;;;;;;-7.19;91.60;99957.70;1678673;83;20199;-82
2021/12/26 02:54:17;;;;;;;;;;;;;;;-7.31;91.89;99967.90;1692139;83;20593;-82
2021/12/26 02:56:42;;;;;;;;;;;;;;;-7.28;92.09;99961.84;1697719;83;20211;-81
2021/12/26 02:59:08;;;;;;;;;;;;;;;-7.31;92.09;99951.67;1697023;83;21155;-82
2021/12/26 03:01:33;;;;;;;;;;;;;;;-7.18;91.50;99955.97;1683623;83;20179;-83
2021/12/26 03:03:59;;;;;;;;;;;;;;;-7.11;91.43;99953.62;1686662;83;20128;-83
2021/12/26 03:06:35;;;;;;;;;;;;;;;-7.12;91.30;99963.47;1691802;83;20188;-83
2021/12/26 03:08:56;;;;;;;;;;;;;;;-7.03;90.96;99958.05;1691029;83;20217;-83
2021/12/26 03:11:22;;;;;;;;;;;;;;;-7.13;91.27;99959.22;1687593;83;21047;-83
2021/12/26 03:13:47;;;;;;;;;;;;;;;-7.17;91.51;99961.05;1687752;83;20206;-83
2021/12/26 03:16:13;;;;;;;;;;;;;;;-7.02;91.23;99962.73;1691654;83;20145;-82
2021/12/26 03:18:39;;;;;;;;;;;;;;;-7.04;91.01;99960.20;1690514;83;20571;-81
2021/12/26 03:21:04;;;;;;;;;;;;;;;-6.99;90.92;99959.64;1682845;83;20152;-81
2021/12/26 03:23:30;;;;;;;;;;;;;;;-6.96;90.76;99962.11;1692590;83;21919;-83
2021/12/26 03:26:00;;;;;;;;;;;;;;;-6.95;90.62;99968.89;1686454;83;20123;-83
2021/12/26 03:28:26;;;;;;;;;;;;;;;-6.92;90.55;99964.95;1690169;83;20210;-83
2021/12/26 03:30:52;;;;;;;;;;;;;;;-6.93;90.54;99960.72;1693418;83;20176;-82
2021/12/26 03:33:18;;;;;;;;;;;;;;;-7.02;90.69;99964.01;1691726;83;20227;-83
2021/12/26 03:35:44;;;;;;;;;;;;;;;-7.01;90.69;99969.55;1687420;83;21100;-82
2021/12/26 03:38:10;;;;;;;;;;;;;;;-7.04;90.77;99967.91;1692186;83;20150;-84
2021/12/26 03:40:36;;;;;;;;;;;;;;;-6.98;90.62;99970.28;1690985;83;20266;-82
2021/12/26 03:43:01;;;;;;;;;;;;;;;-6.93;90.29;99968.84;1691317;83;20200;-82
2021/12/26 03:45:27;;;;;;;;;;;;;;;-6.94;90.42;99978.28;1693176;83;20183;-83
2021/12/26 03:47:52;;;;;;;;;;;;;;;-7.01;90.87;99974.68;1684020;83;21207;-82
2021/12/26 03:50:19;;;;;;;;;;;;;;;-7.01;90.65;99974.23;1689443;83;20651;-80
2021/12/26 03:52:46;;;;;;;;;;;;;;;-7.14;91.15;99971.67;1693125;83;20174;-81
2021/12/26 03:55:11;;;;;;;;;;;;;;;-7.11;91.53;99974.14;1695071;83;20096;-82
2021/12/26 03:57:37;;;;;;;;;;;;;;;-7.14;91.59;99971.67;1695355;83;20208;-81
2021/12/26 04:00:06;;;;;;;;;;;;;;;-7.13;91.56;99968.20;1692781;83;21077;-82
2021/12/26 04:02:31;;;;;;;;;;;;;;;-7.17;91.34;99975.16;1664672;83;20164;-83
2021/12/26 04:04:57;;;;;;;;;;;;;;;-7.25;92.03;99975.41;1655270;85;20145;-83
2021/12/26 04:07:22;;;;;;;;;;;;;;;-7.24;92.00;99973.67;1657332;85;20736;-83
2021/12/26 04:09:48;;;;;;;;;;;;;;;-7.36;92.09;99969.78;1653426;86;20327;-81
2021/12/26 04:12:13;;;;;;;;;;;;;;;-7.38;92.06;99971.98;1655344;85;20997;-81
2021/12/26 04:14:39;;;;;;;;;;;;;;;-7.37;92.12;99974.50;1655782;85;20790;-84
2021/12/26 04:17:05;;;;;;;;;;;;;;;-7.30;91.95;99973.86;1655488;86;20489;-83
2021/12/26 04:19:30;;;;;;;;;;;;;;;-7.47;92.14;99976.94;1655237;85;21021;-81
2021/12/26 04:21:56;;;;;;;;;;;;;;;-7.44;92.06;99971.30;1656940;85;20161;-83
2021/12/26 04:24:22;;;;;;;;;;;;;;;-7.43;91.88;99979.81;1657943;85;21151;-82
2021/12/26 04:26:47;;;;;;;;;;;;;;;-7.47;91.80;99976.94;1654132;85;20102;-82
2021/12/26 04:29:13;;;;;;;;;;;;;;;-7.38;91.57;99974.09;1656364;86;20272;-81
2021/12/26 04:31:39;;;;;;;;;;;;;;;-7.42;91.46;99974.64;1655800;85;20135;-82
2021/12/26 04:34:04;;;;;;;;;;;;;;;-7.50;91.79;99975.75;1653177;86;20149;-82
2021/12/26 04:36:30;;;;;;;;;;;;;;;-7.62;92.42;99976.52;1655984;85;21159;-83
2021/12/26 04:38:55;;;;;;;;;;;;;;;-7.54;92.23;99978.03;1659465;85;20138;-82
2021/12/26 04:41:21;;;;;;;;;;;;;;;-7.55;92.18;99984.03;1652811;85;20145;-83
2021/12/26 04:43:46;;;;;;;;;;;;;;;-7.54;92.25;99980.59;1656154;85;20202;-82
2021/12/26 04:46:12;;;;;;;;;;;;;;;-7.50;91.83;99985.58;1656389;86;21191;-83
2021/12/26 04:48:39;;;;;;;;;;;;;;;-7.55;92.29;99981.47;1658046;85;21193;-83
2021/12/26 04:51:06;;;;;;;;;;;;;;;-7.63;92.55;99976.14;1656639;86;20161;-83
2021/12/26 04:53:32;;;;;;;;;;;;;;;-7.52;92.38;99984.77;1656926;85;20397;-83
2021/12/26 04:55:57;;;;;;;;;;;;;;;-7.51;92.10;99986.91;1658197;85;20214;-82
2021/12/26 04:58:23;;;;;;;;;;;;;;;-7.52;92.20;99985.22;1656016;85;20138;-83
2021/12/26 05:00:48;;;;;;;;;;;;;;;-7.61;92.32;99985.91;1651708;85;21202;-83
2021/12/26 05:03:14;;;;;;;;;;;;;;;-7.60;92.53;99999.13;1655309;84;20350;-82
2021/12/26 05:05:40;;;;;;;;;;;;;;;-7.67;92.71;99991.20;1660429;85;20205;-82
2021/12/26 05:08:06;;;;;;;;;;;;;;;-7.59;92.61;99991.81;1654049;86;20744;-82
2021/12/26 05:10:31;;;;;;;;;;;;;;;-7.68;92.91;99988.69;1654523;85;20334;-82
2021/12/26 05:12:58;;;;;;;;;;;;;;;-7.76;93.04;99995.32;1655892;85;21120;-82
2021/12/26 05:15:23;;;;;;;;;;;;;;;-7.71;93.27;99994.73;1653506;85;20159;-81
2021/12/26 05:17:50;;;;;;;;;;;;;;;-7.79;93.48;99994.13;1656399;85;20138;-82
2021/12/26 05:20:18;;;;;;;;;;;;;;;-7.67;93.20;99992.94;1656115;86;20618;-82
2021/12/26 05:22:43;;;;;;;;;;;;;;;-7.78;93.01;99990.69;1656200;85;20141;-82
2021/12/26 05:25:09;;;;;;;;;;;;;;;-7.81;93.08;99998.47;1655489;85;20980;-82
2021/12/26 05:27:35;;;;;;;;;;;;;;;-7.90;93.54;99996.16;1657253;86;20924;-82
2021/12/26 05:30:00;;;;;;;;;;;;;;;-7.86;93.52;100002.86;1656186;85;20126;-81
2021/12/26 05:32:26;;;;;;;;;;;;;;;-7.82;93.57;100000.17;1654638;85;20685;-82
2021/12/26 05:34:51;;;;;;;;;;;;;;;-7.89;93.61;100005.51;1653969;85;20252;-82
2021/12/26 05:37:17;;;;;;;;;;;;;;;-7.96;93.99;100010.80;1657728;85;21203;-82
2021/12/26 05:39:43;;;;;;;;;;;;;;;-7.90;93.75;100015.38;1655351;85;21489;-82
2021/12/26 05:42:15;;;;;;;;;;;;;;;-7.90;93.64;100016.66;1655093;85;20166;-82
2021/12/26 05:44:37;;;;;;;;;;;;;;;-7.97;93.98;100015.55;1657521;86;20493;-82
2021/12/26 05:47:02;;;;;;;;;;;;;;;-8.03;94.37;100015.72;1653008;86;20146;-82
2021/12/26 05:49:28;;;;;;;;;;;;;;;-7.99;94.21;100012.17;1657396;85;21096;-83
2021/12/26 05:51:54;;;;;;;;;;;;;;;-7.96;93.90;100014.65;1651004;85;20161;-83
2021/12/26 05:54:19;;;;;;;;;;;;;;;-8.00;94.35;100019.48;1655205;85;20191;-82
2021/12/26 05:56:45;;;;;;;;;;;;;;;-8.10;94.74;100012.91;1655239;86;20653;-82
2021/12/26 05:59:10;;;;;;;;;;;;;;;-8.10;95.05;100015.48;1655282;85;20161;-82
2021/12/26 06:01:36;;;;;;;;;;;;;;;-8.02;94.86;100017.83;1658592;83;21078;-82
2021/12/26 06:04:01;;;;;;;;;;;;;;;-7.92;94.68;100017.98;1693502;83;20152;-82
2021/12/26 06:06:27;;;;;;;;;;;;;;;-7.76;94.08;100024.80;1690774;83;20301;-82
2021/12/26 06:08:53;;;;;;;;;;;;;;;-7.78;93.75;100027.41;1686858;83;20445;-82
2021/12/26 06:11:18;;;;;;;;;;;;;;;-7.84;93.72;100031.88;1691901;83;20138;-81
2021/12/26 06:13:44;;;;;;;;;;;;;;;-7.86;94.43;100050.27;1684088;83;22512;-82
2021/12/26 06:16:09;;;;;;;;;;;;;;;-7.73;94.66;100039.27;1693421;83;20160;-82
2021/12/26 06:18:35;;;;;;;;;;;;;;;-7.71;93.83;100042.16;1692930;83;20144;-81
2021/12/26 06:21:00;;;;;;;;;;;;;;;-7.76;94.38;100045.30;1686696;83;20167;-82
2021/12/26 06:23:26;;;;;;;;;;;;;;;-7.69;94.69;100040.41;1697101;83;20180;-81
2021/12/26 06:25:52;;;;;;;;;;;;;;;-7.73;94.66;100051.63;1694379;83;21171;-82
2021/12/26 06:28:17;;;;;;;;;;;;;;;-7.64;94.93;100044.96;1686964;83;20279;-81
2021/12/26 06:30:43;;;;;;;;;;;;;;;-7.71;94.50;100059.27;1700794;83;20905;-81
2021/12/26 06:33:08;;;;;;;;;;;;;;;-7.74;94.34;100057.63;1696866;83;20515;-81
2021/12/26 06:35:34;;;;;;;;;;;;;;;-7.69;94.44;100057.08;1689003;83;20216;-82
2021/12/26 06:38:00;;;;;;;;;;;;;;;-7.65;94.65;100057.37;1691140;83;21107;-82
2021/12/26 06:40:25;;;;;;;;;;;;;;;-7.61;94.76;100053.84;1701422;83;20632;-81
2021/12/26 06:42:51;;;;;;;;;;;;;;;-7.61;94.65;100062.83;1694395;83;20184;-81
2021/12/26 06:45:18;;;;;;;;;;;;;;;-7.54;94.80;100060.09;1697312;83;20223;-81
2021/12/26 06:47:49;;;;;;;;;;;;;;;-7.43;94.55;100064.00;1685328;83;20146;-81
2021/12/26 06:50:12;;;;;;;;;;;;;;;-7.34;94.58;100065.92;1688855;83;20188;-81
2021/12/26 06:52:37;;;;;;;;;;;;;;;-7.40;94.46;100065.65;1690893;83;20202;-82
2021/12/26 06:55:04;;;;;;;;;;;;;;;-7.42;95.04;100072.10;1693660;83;20164;-83
2021/12/26 06:57:29;;;;;;;;;;;;;;;-7.43;95.13;100071.70;1690113;83;20264;-83
2021/12/26 06:59:55;;;;;;;;;;;;;;;-7.37;95.66;100062.99;1699501;83;20435;-83
2021/12/26 07:02:20;;;;;;;;;;;;;;;-7.40;95.89;100066.93;1692162;83;21059;-83
2021/12/26 07:04:47;;;;;;;;;;;;;;;-7.31;96.53;100073.08;1686948;83;20180;-83
2021/12/26 07:07:13;;;;;;;;;;;;;;;-7.28;96.97;100062.72;1700429;83;20132;-83
2021/12/26 07:09:39;;;;;;;;;;;;;;;-7.20;97.20;100075.33;1696024;83;20162;-82
2021/12/26 07:12:06;;;;;;;;;;;;;;;-7.21;97.61;100071.07;1684090;83;20248;-83
2021/12/26 07:14:32;;;;;;;;;;;;;;;-7.07;97.52;100071.94;1696018;83;21192;-81
2021/12/26 07:16:57;;;;;;;;;;;;;;;-7.01;97.91;100074.78;1689988;83;20503;-81
2021/12/26 07:19:23;;;;;;;;;;;;;;;-6.91;97.71;100075.73;1689996;83;20223;-83
2021/12/26 07:21:49;;;;;;;;;;;;;;;-6.96;98.00;100077.61;1701011;83;20152;-81
2021/12/26 07:24:15;;;;;;;;;;;;;;;-6.94;98.15;100084.81;1695012;83;20167;-83
2021/12/26 07:26:40;;;;;;;;;;;;;;;-6.97;98.03;100091.31;1687043;83;21866;-83
2021/12/26 07:29:06;;;;;;;;;;;;;;;-7.11;98.84;100094.75;1693934;83;20168;-82
2021/12/26 07:31:31;;;;;;;;;;;;;;;-6.94;98.52;100105.34;1695595;83;21511;-83
2021/12/26 07:33:57;;;;;;;;;;;;;;;-7.01;98.77;100099.98;1686476;83;20148;-83
2021/12/26 07:36:23;;;;;;;;;;;;;;;-7.00;98.92;100100.40;1685063;83;20144;-83
2021/12/26 07:38:48;;;;;;;;;;;;;;;-6.95;98.61;100098.52;1690652;83;21093;-83
2021/12/26 07:41:14;;;;;;;;;;;;;;;-6.94;98.44;100104.52;1697566;83;20482;-83
2021/12/26 07:43:39;;;;;;;;;;;;;;;-7.06;99.39;100100.58;1698087;83;20140;-83
2021/12/26 07:46:05;;;;;;;;;;;;;;;-6.98;99.80;100106.31;1690700;83;20148;-83
2021/12/26 07:48:30;;;;;;;;;;;;;;;-7.02;100.00;100112.87;1683500;83;20935;-82
2021/12/26 07:50:56;;;;;;;;;;;;;;;-6.97;100.00;100118.27;1681517;83;21232;-82
2021/12/26 07:53:21;;;;;;;;;;;;;;;-7.10;100.00;100111.81;1682611;83;20726;-83
2021/12/26 07:55:48;;;;;;;;;;;;;;;-7.06;100.00;100113.41;1687513;83;20494;-81
2021/12/26 07:58:15;;;;;;;;;;;;;;;-7.00;100.00;100126.06;1700820;83;20571;-82
2021/12/26 08:00:41;;;;;;;;;;;;;;;-6.92;100.00;100115.11;1687475;83;20185;-81
2021/12/26 08:03:06;;;;;;;;;;;;;;;-6.78;100.00;100120.28;1694360;83;21305;-85
2021/12/26 08:05:32;;;;;;;;;;;;;;;-6.67;100.00;100123.35;1699740;83;20147;-80
2021/12/26 08:07:58;;;;;;;;;;;;;;;-6.70;100.00;100136.28;1706439;83;20183;-81
2021/12/26 08:10:23;;;;;;;;;;;;;;;-6.54;100.00;100142.64;1699946;82;20669;-80
2021/12/26 08:12:49;;;;;;;;;;;;;;;-6.47;100.00;100133.00;1702066;83;20137;-80
2021/12/26 08:15:14;;;;;;;;;;;;;;;-6.46;100.00;100129.98;1710685;83;22145;-80
2021/12/26 08:17:40;;;;;;;;;;;;;;;-6.40;100.00;100146.48;1695701;82;20206;-80
2021/12/26 08:20:07;;;;;;;;;;;;;;;-6.37;100.00;100138.26;1698519;83;20154;-79
2021/12/26 08:22:32;;;;;;;;;;;;;;;-6.35;100.00;100142.06;1697292;83;20199;-79
2021/12/26 08:24:58;;;;;;;;;;;;;;;-6.29;100.00;100131.59;1697902;83;20213;-80
2021/12/26 08:27:23;;;;;;;;;;;;;;;-6.39;100.00;100142.58;1698050;82;21153;-81
2021/12/26 08:29:49;;;;;;;;;;;;;;;-6.30;100.00;100147.05;1708538;83;20171;-81
2021/12/26 08:32:17;;;;;;;;;;;;;;;-6.22;100.00;100145.90;1707167;83;20159;-81
2021/12/26 08:34:43;;;;;;;;;;;;;;;-6.04;100.00;100139.78;1697621;83;20171;-80
2021/12/26 08:37:09;;;;;;;;;;;;;;;-5.98;100.00;100135.69;1706025;83;20159;-81
2021/12/26 08:39:36;;;;;;;;;;;;;;;-6.03;100.00;100142.72;1709613;83;21257;-81
2021/12/26 08:42:03;;;;;;;;;;;;;;;-5.90;100.00;100128.55;1703448;82;20223;-80
2021/12/26 08:44:28;;;;;;;;;;;;;;;-5.87;100.00;100133.59;1698017;83;20231;-79
2021/12/26 08:46:54;;;;;;;;;;;;;;;-5.55;100.00;100140.61;1713309;82;20130;-78
2021/12/26 08:49:19;;;;;;;;;;;;;;;-5.51;100.00;100148.63;1698947;82;20197;-81
2021/12/26 08:51:45;;;;;;;;;;;;;;;-5.45;100.00;100143.27;1690467;83;21010;-80
2021/12/26 08:54:11;;;;;;;;;;;;;;;-5.29;100.00;100145.29;1704250;83;20193;-82
2021/12/26 08:56:37;;;;;;;;;;;;;;;-5.32;100.00;100146.69;1711421;83;20157;-81
2021/12/26 08:59:03;;;;;;;;;;;;;;;-5.16;100.00;100145.22;1699703;83;20200;-81
2021/12/26 09:01:28;;;;;;;;;;;;;;;-5.11;100.00;100148.48;1701078;83;20397;-79
2021/12/26 09:03:54;;;;;;;;;;;;;;;-4.98;100.00;100158.33;1692556;83;21148;-79
2021/12/26 09:06:20;;;;;;;;;;;;;;;-5.05;100.00;100152.12;1688462;83;20244;-80
2021/12/26 09:08:45;;;;;;;;;;;;;;;-5.17;100.00;100156.86;1686674;83;20156;-83
2021/12/26 09:11:11;;;;;;;;;;;;;;;-5.11;100.00;100157.92;1691312;83;20134;-79
2021/12/26 09:13:36;;;;;;;;;;;;;;;-5.12;100.00;100160.13;1688489;83;20150;-79
2021/12/26 09:16:03;;;;;;;;;;;;;;;-5.17;99.90;100160.72;1684352;83;21120;-81
2021/12/26 09:18:28;;;;;;;;;;;;;;;-5.28;99.21;100152.95;1682612;83;20212;-78
2021/12/26 09:20:54;;;;;;;;;;;;;;;-5.12;98.38;100155.80;1684645;83;20628;-80
2021/12/26 09:23:20;;;;;;;;;;;;;;;-5.14;98.01;100165.33;1682400;83;20135;-81
2021/12/26 09:25:45;;;;;;;;;;;;;;;-5.18;97.80;100171.47;1686257;83;20465;-81
2021/12/26 09:28:11;;;;;;;;;;;;;;;-5.23;97.36;100169.52;1683708;83;21868;-77
2021/12/26 09:30:37;;;;;;;;;;;;;;;-5.24;97.07;100155.79;1697327;83;20137;-78
2021/12/26 09:33:03;;;;;;;;;;;;;;;-5.19;97.51;100168.95;1684926;83;20214;-78
2021/12/26 09:35:29;;;;;;;;;;;;;;;-5.28;97.45;100159.84;1684318;83;20171;-79
2021/12/26 09:37:55;;;;;;;;;;;;;;;-5.20;97.53;100164.27;1692934;83;20541;-78
2021/12/26 09:40:20;;;;;;;;;;;;;;;-5.26;97.67;100166.59;1681784;83;21062;-79
2021/12/26 09:42:46;;;;;;;;;;;;;;;-5.19;97.50;100158.66;1688592;83;20215;-76
2021/12/26 09:45:12;;;;;;;;;;;;;;;-5.19;97.36;100159.94;1682649;83;21014;-79
2021/12/26 09:47:38;;;;;;;;;;;;;;;-5.34;97.31;100153.63;1683774;83;20820;-78
2021/12/26 09:50:05;;;;;;;;;;;;;;;-5.32;97.73;100145.40;1669320;83;20192;-79
2021/12/26 09:52:30;;;;;;;;;;;;;;;-5.30;97.69;100152.61;1693214;83;21845;-80
2021/12/26 09:54:56;;;;;;;;;;;;;;;-5.26;97.93;100148.58;1689683;83;20182;-81
2021/12/26 09:57:23;;;;;;;;;;;;;;;-5.23;98.04;100139.92;1682951;83;20495;-80
2021/12/26 09:59:48;;;;;;;;;;;;;;;-5.02;97.86;100136.16;1684691;83;20191;-77
2021/12/26 10:02:15;;;;;;;;;;;;;;;-5.07;97.85;100147.45;1684256;83;20592;-78
2021/12/26 10:04:41;;;;;;;;;;;;;;;-4.97;98.10;100140.67;1688183;83;21258;-78
2021/12/26 10:07:14;;;;;;;;;;;;;;;-4.92;98.03;100145.22;1697199;83;20179;-80
2021/12/26 10:09:41;;;;;;;;;;;;;;;-4.67;97.56;100133.98;1699052;83;20173;-79
2021/12/26 10:12:08;;;;;;;;;;;;;;;-4.80;96.93;100143.47;1697202;83;20172;-76
2021/12/26 10:14:35;;;;;;;;;;;;;;;-4.62;97.16;100144.94;1696576;83;20163;-80
2021/12/26 10:17:06;;;;;;;;;;;;;;;-4.70;97.32;100145.23;1692155;83;21177;-79
2021/12/26 10:19:34;;;;;;;;;;;;;;;-4.37;97.08;100135.31;1693285;83;20477;-79
2021/12/26 10:22:00;;;;;;;;;;;;;;;-4.31;95.81;100139.86;1697494;83;20180;-82
2021/12/26 10:24:28;;;;;;;;;;;;;;;-4.53;95.66;100147.16;1696217;83;20654;-80
2021/12/26 10:27:04;;;;;;;;;;;;;;;-4.27;95.33;100146.55;1697778;83;20522;-79
2021/12/26 10:29:38;;;;;;;;;;;;;;;-4.45;95.10;100156.70;1701373;83;39206;-81
2021/12/26 10:32:13;;;;;;;;;;;;;;;-4.38;95.57;100155.58;1687531;83;20226;-78
2021/12/26 10:34:41;;;;;;;;;;;;;;;-4.51;95.62;100151.79;1696968;83;20131;-78
2021/12/26 10:37:19;;;;;;;;;;;;;;;-4.47;96.13;100152.07;1702910;83;20204;-78
2021/12/26 10:39:51;;;;;;;;;;;;;;;-4.50;96.38;100161.20;1688662;83;20584;-76
2021/12/26 10:42:19;;;;;;;;;;;;;;;-4.20;96.20;100155.73;1698901;83;21173;-78
2021/12/26 10:44:49;;;;;;;;;;;;;;;-4.13;95.61;100148.57;1700149;83;20464;-79
2021/12/26 10:47:17;;;;;;;;;;;;;;;-4.08;95.78;100151.36;1690240;83;20249;-76
2021/12/26 10:49:48;;;;;;;;;;;;;;;-4.19;96.14;100155.66;1695425;83;20183;-77
2021/12/26 10:52:21;;;;;;;;;;;;;;;-3.97;96.38;100149.17;1702036;83;20195;-80
2021/12/26 10:55:00;;;;;;;;;;;;;;;-3.85;95.79;100153.45;1685382;83;21083;-79
2021/12/26 10:57:28;;;;;;;;;;;;;;;-3.91;95.77;100163.56;1692738;83;20188;-80
2021/12/26 11:00:09;;;;;;;;;;;;;;;-3.92;96.54;100158.47;1693146;83;20234;-81
2021/12/26 11:02:35;;;;;;;;;;;;;;;-3.85;96.80;100156.03;1690495;83;20159;-77
2021/12/26 11:05:11;;;;;;;;;;;;;;;-3.89;96.87;100151.43;1690159;83;20195;-81
2021/12/26 11:07:43;;;;;;;;;;;;;;;-3.68;96.71;100151.42;1682600;83;21234;-77
2021/12/26 11:10:20;;;;;;;;;;;;;;;-3.67;96.85;100156.52;1695565;83;20537;-78
2021/12/26 11:12:48;;;;;;;;;;;;;;;-3.49;96.19;100154.08;1688345;83;20199;-82
2021/12/26 11:15:15;;;;;;;;;;;;;;;-3.40;95.77;100147.22;1690153;83;20289;-79
2021/12/26 11:17:46;;;;;;;;;;;;;;;-3.31;95.38;100151.98;1697684;82;20215;-77
2021/12/26 11:20:20;;;;;;;;;;;;;;;-3.23;95.16;100157.23;1697094;82;21194;-78
2021/12/26 11:22:45;;;;;;;;;;;;;;;-3.20;95.07;100153.23;1691698;83;20431;-80
2021/12/26 11:25:11;;;;;;;;;;;;;;;-3.08;94.83;100157.84;1686437;83;20122;-78
2021/12/26 11:27:37;;;;;;;;;;;;;;;-2.99;94.54;100157.89;1682880;83;20138;-78
2021/12/26 11:30:05;;;;;;;;;;;;;;;-2.86;94.28;100156.88;1695434;83;20492;-82
2021/12/26 11:32:31;;;;;;;;;;;;;;;-2.86;93.61;100164.62;1689919;83;20982;-81
2021/12/26 11:34:56;;;;;;;;;;;;;;;-2.97;93.09;100163.36;1682272;83;20137;-80
2021/12/26 11:37:22;;;;;;;;;;;;;;;-2.97;93.36;100168.52;1690907;83;20142;-80
2021/12/26 11:39:48;;;;;;;;;;;;;;;-2.92;93.10;100165.30;1690890;83;20128;-82
2021/12/26 11:42:23;;;;;;;;;;;;;;;-2.85;92.88;100162.44;1693591;83;20569;-80
2021/12/26 11:45:06;;;;;;;;;;;;;;;-2.73;92.49;100165.75;1693659;83;22675;-81
2021/12/26 11:47:51;;;;;;;;;;;;;;;-2.64;92.19;100164.03;1688803;83;20332;-84
2021/12/26 11:50:21;;;;;;;;;;;;;;;-2.58;91.71;100175.38;1703857;83;20133;-81
2021/12/26 11:52:56;;;;;;;;;;;;;;;-2.75;91.46;100167.55;1684846;83;20222;-83
2021/12/26 11:55:41;;;;;;;;;;;;;;;-2.70;91.87;100172.07;1694473;83;20233;-79
2021/12/26 11:58:43;;;;;;;;;;;;;;;-2.47;91.77;100162.38;1684834;83;21969;-83
2021/12/26 12:01:14;;;;;;;;;;;;;;;-2.47;91.13;100164.53;1679858;83;20187;-78
2021/12/26 12:03:39;;;;;;;;;;;;;;;-2.45;90.65;100156.70;1684747;83;20123;-77
2021/12/26 12:06:05;;;;;;;;;;;;;;;-2.33;90.38;100157.41;1694762;83;20508;-75
2021/12/26 12:08:33;;;;;;;;;;;;;;;-2.46;90.13;100161.48;1694666;83;20144;-77
2021/12/26 12:11:01;;;;;;;;;;;;;;;-2.54;89.90;100157.50;1698485;83;20994;-79
2021/12/26 12:13:43;;;;;;;;;;;;;;;-2.47;90.21;100156.78;1697396;83;20125;-76
2021/12/26 12:16:10;;;;;;;;;;;;;;;-2.46;89.84;100148.09;1691165;83;20266;-81
2021/12/26 12:18:38;;;;;;;;;;;;;;;-2.49;90.22;100149.99;1698452;83;20199;-76
2021/12/26 12:21:19;;;;;;;;;;;;;;;-2.67;90.38;100155.13;1695625;83;20336;-81
2021/12/26 12:23:57;;;;;;;;;;;;;;;-2.61;90.58;100161.30;1695132;83;21170;-80
2021/12/26 12:26:39;;;;;;;;;;;;;;;-2.48;90.38;100165.44;1697305;83;20163;-81
2021/12/26 12:29:04;;;;;;;;;;;;;;;-2.48;90.43;100165.90;1686132;83;20172;-81
2021/12/26 12:31:30;;;;;;;;;;;;;;;-2.56;90.36;100165.80;1699073;83;20156;-84
2021/12/26 12:34:09;;;;;;;;;;;;;;;-2.52;90.66;100166.48;1669903;83;20136;-85
2021/12/26 12:36:38;;;;;;;;;;;;;;;-2.53;90.81;100164.82;1688322;83;21068;-81
2021/12/26 12:39:23;;;;;;;;;;;;;;;-2.42;90.59;100162.55;1693946;83;20146;-80
2021/12/26 12:41:50;;;;;;;;;;;;;;;-2.31;90.10;100163.80;1687226;83;20219;-80
2021/12/26 12:44:31;;;;;;;;;;;;;;;-2.46;90.54;100167.95;1697174;83;20620;-81